Time;durP1;ratioP1;P1;durP2;ratioP2;P2;SDS_P1;SDS_P2;PMS_P1;PMS_P2;Temp;Humidity;BMP_temperature;BMP_pressure;BME280_temperature;BME280_humidity;BME280_pressure;Samples;Min_cycle;Max_cycle;Signal;HPM_P1;HPM_P2
2022/04/23 00:00:26;;;;;;;;;35.25;30.25;;;;;;;;5026294;28;45506;-62
2022/04/23 00:02:52;;;;;;;;;26.50;25.50;;;;;;;;5030930;28;46020;-61
2022/04/23 00:05:17;;;;;;;;;29.75;28.00;;;;;;;;5029130;28;45485;-61
2022/04/23 00:07:42;;;;;;;;;32.00;30.50;;;;;;;;5032001;28;45409;-61
2022/04/23 00:10:08;;;;;;;;;34.00;31.00;;;;;;;;5033670;28;45343;-61
2022/04/23 00:12:34;;;;;;;;;27.50;24.50;;;;;;;;5041151;28;49027;-61
2022/04/23 00:14:59;;;;;;;;;31.25;29.75;;;;;;;;5035109;28;45448;-61
2022/04/23 00:17:24;;;;;;;;;29.00;28.25;;;;;;;;5026174;28;45962;-61
2022/04/23 00:19:49;;;;;;;;;37.50;33.25;;;;;;;;5037292;28;45712;-62
2022/04/23 00:22:18;;;;;;;;;33.25;32.00;;;;;;;;5025029;28;46714;-62
2022/04/23 00:24:43;;;;;;;;;34.00;32.00;;;;;;;;5037312;28;46389;-62
2022/04/23 00:27:09;;;;;;;;;36.75;32.50;;;;;;;;5030883;28;45891;-61
2022/04/23 00:29:35;;;;;;;;;46.50;37.25;;;;;;;;5025930;28;45499;-61
2022/04/23 00:32:01;;;;;;;;;42.25;36.75;;;;;;;;5038286;28;45723;-61
2022/04/23 00:34:26;;;;;;;;;39.50;35.50;;;;;;;;5031978;28;45784;-61
2022/04/23 00:36:51;;;;;;;;;38.00;34.75;;;;;;;;5030107;28;45469;-61
2022/04/23 00:39:17;;;;;;;;;38.25;31.50;;;;;;;;5032399;28;45451;-61
2022/04/23 00:41:48;;;;;;;;;37.00;32.75;;;;;;;;5025591;28;46218;-61
2022/04/23 00:44:14;;;;;;;;;33.50;30.00;;;;;;;;5035014;28;45534;-62
2022/04/23 00:46:39;;;;;;;;;33.25;30.75;;;;;;;;5029872;28;45762;-62
2022/04/23 00:49:06;;;;;;;;;30.00;27.75;;;;;;;;5032042;28;45888;-62
2022/04/23 00:51:32;;;;;;;;;29.00;28.25;;;;;;;;5029884;28;46565;-61
2022/04/23 00:53:58;;;;;;;;;29.50;26.00;;;;;;;;5022787;28;45527;-60
2022/04/23 00:56:24;;;;;;;;;32.75;30.75;;;;;;;;5036983;28;45392;-60
2022/04/23 00:58:50;;;;;;;;;28.00;27.00;;;;;;;;5029408;28;45717;-61
2022/04/23 01:01:15;;;;;;;;;29.75;28.25;;;;;;;;5032252;28;46225;-60
2022/04/23 01:03:42;;;;;;;;;32.75;30.50;;;;;;;;5031055;28;45466;-60
2022/04/23 01:06:10;;;;;;;;;33.50;30.75;;;;;;;;5026154;28;45539;-60
2022/04/23 01:08:36;;;;;;;;;32.75;28.50;;;;;;;;5037194;28;45436;-60
2022/04/23 01:11:01;;;;;;;;;31.00;28.50;;;;;;;;5029431;28;46139;-60
2022/04/23 01:13:26;;;;;;;;;26.25;26.00;;;;;;;;5030392;28;45962;-60
2022/04/23 01:16:05;;;;;;;;;29.00;28.75;;;;;;;;5031459;28;45443;-60
2022/04/23 01:18:31;;;;;;;;;34.50;30.25;;;;;;;;5024781;28;45768;-60
2022/04/23 01:20:57;;;;;;;;;31.50;30.25;;;;;;;;5032304;28;47838;-60
2022/04/23 01:23:23;;;;;;;;;28.25;28.00;;;;;;;;5027241;28;45463;-60
2022/04/23 01:25:52;;;;;;;;;33.25;30.50;;;;;;;;5031686;28;45577;-60
2022/04/23 01:28:19;;;;;;;;;30.00;26.00;;;;;;;;5032182;28;45516;-60
2022/04/23 01:30:44;;;;;;;;;29.25;28.25;;;;;;;;5027188;28;46483;-60
2022/04/23 01:33:09;;;;;;;;;29.00;29.00;;;;;;;;5032762;28;45451;-60
2022/04/23 01:35:34;;;;;;;;;22.75;21.75;;;;;;;;5025127;28;45529;-60
2022/04/23 01:37:59;;;;;;;;;31.75;30.25;;;;;;;;5037635;28;45485;-60
2022/04/23 01:40:25;;;;;;;;;27.00;26.75;;;;;;;;5031381;28;45711;-60
2022/04/23 01:42:50;;;;;;;;;27.50;25.50;;;;;;;;5028861;28;45391;-60
2022/04/23 01:45:15;;;;;;;;;28.75;26.75;;;;;;;;5024752;28;45513;-60
2022/04/23 01:47:41;;;;;;;;;31.75;30.50;;;;;;;;5017644;28;45607;-61
2022/04/23 01:50:07;;;;;;;;;28.75;28.25;;;;;;;;5028705;28;45776;-61
2022/04/23 01:52:33;;;;;;;;;28.00;28.00;;;;;;;;5022884;28;46276;-61
2022/04/23 01:54:58;;;;;;;;;29.00;26.25;;;;;;;;5021068;28;45659;-60
2022/04/23 01:57:23;;;;;;;;;29.25;28.00;;;;;;;;5028889;28;45617;-60
2022/04/23 01:59:49;;;;;;;;;31.25;29.00;;;;;;;;5023478;28;45730;-60
2022/04/23 02:02:14;;;;;;;;;37.25;32.25;;;;;;;;5033994;28;46337;-60
2022/04/23 02:04:39;;;;;;;;;32.50;29.50;;;;;;;;5028368;28;45472;-61
2022/04/23 02:07:04;;;;;;;;;36.75;31.75;;;;;;;;5037297;28;45755;-60
2022/04/23 02:09:29;;;;;;;;;34.00;32.00;;;;;;;;5028428;28;46013;-60
2022/04/23 02:11:56;;;;;;;;;33.00;30.25;;;;;;;;5023827;28;45838;-60
2022/04/23 02:14:22;;;;;;;;;28.25;27.00;;;;;;;;5036644;28;45780;-60
2022/04/23 02:16:47;;;;;;;;;28.00;26.75;;;;;;;;5028057;28;45574;-60
2022/04/23 02:19:13;;;;;;;;;28.00;27.00;;;;;;;;5031798;28;45712;-60
2022/04/23 02:21:38;;;;;;;;;31.00;30.50;;;;;;;;5029346;28;45484;-60
2022/04/23 02:24:04;;;;;;;;;31.50;27.00;;;;;;;;5024941;28;46002;-60
2022/04/23 02:26:29;;;;;;;;;34.00;31.50;;;;;;;;5036744;28;45439;-59
2022/04/23 02:28:54;;;;;;;;;30.50;29.25;;;;;;;;5027390;28;45625;-61
2022/04/23 02:31:20;;;;;;;;;32.00;30.25;;;;;;;;5029737;28;45421;-62
2022/04/23 02:33:45;;;;;;;;;29.75;29.50;;;;;;;;5028244;28;45420;-62
2022/04/23 02:36:11;;;;;;;;;31.00;29.75;;;;;;;;5028691;28;45511;-62
2022/04/23 02:38:40;;;;;;;;;31.50;29.75;;;;;;;;5021796;28;48562;-61
2022/04/23 02:41:08;;;;;;;;;33.00;29.50;;;;;;;;5019580;28;45658;-60
2022/04/23 02:43:38;;;;;;;;;29.75;28.75;;;;;;;;5040116;28;45663;-62
2022/04/23 02:46:04;;;;;;;;;30.25;29.25;;;;;;;;5046939;28;45755;-62
2022/04/23 02:48:29;;;;;;;;;27.25;26.00;;;;;;;;5026999;28;46261;-62
2022/04/23 02:50:54;;;;;;;;;28.00;28.00;;;;;;;;5031138;28;45669;-61
2022/04/23 02:53:19;;;;;;;;;25.50;25.50;;;;;;;;5020078;28;45660;-62
2022/04/23 02:55:46;;;;;;;;;27.25;26.25;;;;;;;;5031011;28;45588;-62
2022/04/23 02:58:11;;;;;;;;;29.25;29.25;;;;;;;;5015981;28;45414;-63
2022/04/23 03:00:40;;;;;;;;;29.75;28.75;;;;;;;;5036165;28;46194;-62
2022/04/23 03:03:07;;;;;;;;;31.00;27.75;;;;;;;;5037157;28;45822;-62
2022/04/23 03:05:32;;;;;;;;;28.25;27.50;;;;;;;;5023660;28;45720;-62
2022/04/23 03:08:01;;;;;;;;;32.75;29.25;;;;;;;;5031354;28;45959;-62
2022/04/23 03:10:27;;;;;;;;;27.00;26.25;;;;;;;;5024383;28;45453;-61
2022/04/23 03:12:55;;;;;;;;;27.25;27.00;;;;;;;;5038513;28;45508;-61
2022/04/23 03:15:21;;;;;;;;;25.25;24.25;;;;;;;;5027324;28;45936;-63
2022/04/23 03:17:46;;;;;;;;;32.25;30.50;;;;;;;;5025574;28;45716;-62
2022/04/23 03:20:12;;;;;;;;;23.00;22.50;;;;;;;;5037039;28;45691;-62
2022/04/23 03:22:38;;;;;;;;;32.50;29.00;;;;;;;;5027001;28;45627;-63
2022/04/23 03:25:03;;;;;;;;;29.50;29.00;;;;;;;;5031912;28;45733;-61
2022/04/23 03:27:32;;;;;;;;;25.75;25.00;;;;;;;;5027314;28;46695;-61
2022/04/23 03:29:58;;;;;;;;;30.25;27.75;;;;;;;;5029239;28;45866;-61
2022/04/23 03:32:24;;;;;;;;;30.75;30.75;;;;;;;;5043490;28;45823;-62
2022/04/23 03:34:49;;;;;;;;;27.50;27.50;;;;;;;;5019375;28;46186;-62
2022/04/23 03:37:14;;;;;;;;;35.00;30.75;;;;;;;;5033981;28;46269;-62
2022/04/23 03:39:40;;;;;;;;;31.50;30.00;;;;;;;;5020279;28;45528;-61
2022/04/23 03:42:05;;;;;;;;;29.75;26.50;;;;;;;;5028266;28;45657;-61
2022/04/23 03:44:31;;;;;;;;;33.00;29.75;;;;;;;;5031729;28;45594;-62
2022/04/23 03:46:57;;;;;;;;;30.25;27.00;;;;;;;;5021109;28;45770;-61
2022/04/23 03:49:23;;;;;;;;;24.25;24.25;;;;;;;;5028945;28;45753;-62
2022/04/23 03:51:48;;;;;;;;;27.25;27.25;;;;;;;;5023509;28;45454;-62
2022/04/23 03:54:14;;;;;;;;;30.75;28.50;;;;;;;;5018932;28;45651;-62
2022/04/23 03:56:40;;;;;;;;;32.50;30.00;;;;;;;;5042343;28;48338;-62
2022/04/23 03:59:07;;;;;;;;;37.00;32.50;;;;;;;;5024723;28;45422;-61
2022/04/23 04:01:33;;;;;;;;;31.25;29.75;;;;;;;;5031533;28;45539;-63
2022/04/23 04:03:58;;;;;;;;;28.50;26.00;;;;;;;;5018822;28;45405;-62
2022/04/23 04:06:23;;;;;;;;;32.25;31.00;;;;;;;;5031607;28;46171;-61
2022/04/23 04:08:50;;;;;;;;;28.00;27.00;;;;;;;;5034713;28;45432;-61
2022/04/23 04:11:15;;;;;;;;;26.75;23.25;;;;;;;;5040243;28;45495;-61
2022/04/23 04:13:41;;;;;;;;;30.25;26.50;;;;;;;;5032327;28;45485;-62
2022/04/23 04:16:06;;;;;;;;;33.25;32.25;;;;;;;;5034254;28;46420;-61
2022/04/23 04:18:32;;;;;;;;;33.75;31.00;;;;;;;;5019240;28;45466;-61
2022/04/23 04:20:58;;;;;;;;;38.25;32.00;;;;;;;;5019264;28;45443;-61
2022/04/23 04:23:26;;;;;;;;;34.25;32.00;;;;;;;;5019057;28;46012;-62
2022/04/23 04:25:51;;;;;;;;;33.25;32.50;;;;;;;;5014312;28;47904;-61
2022/04/23 04:28:16;;;;;;;;;41.00;31.25;;;;;;;;5029923;28;45439;-62
2022/04/23 04:33:25;;;;;;;;;27.50;26.25;;;;;;;;5026940;28;45571;-61
2022/04/23 04:35:51;;;;;;;;;29.00;26.00;;;;;;;;5026799;28;45712;-61
2022/04/23 04:38:16;;;;;;;;;32.50;30.00;;;;;;;;5026990;28;45467;-61
2022/04/23 04:40:41;;;;;;;;;28.00;24.75;;;;;;;;5031448;28;45415;-61
2022/04/23 04:43:07;;;;;;;;;37.00;30.00;;;;;;;;5023082;28;45637;-61
2022/04/23 04:45:32;;;;;;;;;34.00;27.00;;;;;;;;5027483;28;46655;-62
2022/04/23 04:47:57;;;;;;;;;31.50;31.00;;;;;;;;5014065;28;45503;-61
2022/04/23 04:50:23;;;;;;;;;34.50;30.75;;;;;;;;5014500;28;45382;-62
2022/04/23 04:52:49;;;;;;;;;26.00;25.25;;;;;;;;5015190;28;45545;-61
2022/04/23 04:55:14;;;;;;;;;30.00;30.00;;;;;;;;5020023;28;45610;-62
2022/04/23 04:57:40;;;;;;;;;28.50;28.50;;;;;;;;5029669;28;45756;-62
2022/04/23 05:00:05;;;;;;;;;28.25;26.75;;;;;;;;5023663;28;45388;-62
2022/04/23 05:02:30;;;;;;;;;35.50;31.00;;;;;;;;5023481;28;45465;-61
2022/04/23 05:04:56;;;;;;;;;31.25;26.75;;;;;;;;5015749;28;45839;-61
2022/04/23 05:07:21;;;;;;;;;23.00;22.75;;;;;;;;5014444;28;45585;-62
2022/04/23 05:09:46;;;;;;;;;25.00;22.25;;;;;;;;5028795;28;45397;-62
2022/04/23 05:12:12;;;;;;;;;27.00;26.50;;;;;;;;5017395;28;45509;-62
2022/04/23 05:14:37;;;;;;;;;25.25;24.50;;;;;;;;5014140;28;47341;-62
2022/04/23 05:17:02;;;;;;;;;26.00;23.75;;;;;;;;5014607;28;45556;-61
2022/04/23 05:19:27;;;;;;;;;28.25;23.75;;;;;;;;5024456;28;45523;-62
2022/04/23 05:21:52;;;;;;;;;27.75;27.75;;;;;;;;5014375;28;45463;-61
2022/04/23 05:24:18;;;;;;;;;27.75;25.25;;;;;;;;5020317;28;45665;-61
2022/04/23 05:26:43;;;;;;;;;27.50;25.00;;;;;;;;5021716;28;45701;-62
2022/04/23 05:29:08;;;;;;;;;25.50;22.75;;;;;;;;5020430;28;45458;-61
2022/04/23 05:31:33;;;;;;;;;27.25;26.50;;;;;;;;5028280;28;45460;-63
2022/04/23 05:33:59;;;;;;;;;32.50;26.50;;;;;;;;5013663;28;46226;-62
2022/04/23 05:36:24;;;;;;;;;26.75;25.50;;;;;;;;5023402;28;45705;-63
2022/04/23 05:38:50;;;;;;;;;22.75;21.50;;;;;;;;5015312;28;45393;-62
2022/04/23 05:41:15;;;;;;;;;29.75;27.00;;;;;;;;5014157;28;45464;-64
2022/04/23 05:43:41;;;;;;;;;27.25;26.00;;;;;;;;5024297;28;46474;-62
2022/04/23 05:46:06;;;;;;;;;27.50;27.50;;;;;;;;5016299;28;46056;-62
2022/04/23 05:48:31;;;;;;;;;22.00;22.00;;;;;;;;5015056;28;45481;-62
2022/04/23 05:50:57;;;;;;;;;26.00;26.00;;;;;;;;5029633;28;45595;-62
2022/04/23 05:53:22;;;;;;;;;32.25;29.50;;;;;;;;5029375;28;47512;-62
2022/04/23 05:55:47;;;;;;;;;28.75;26.50;;;;;;;;5019509;28;45637;-62
2022/04/23 05:58:13;;;;;;;;;25.50;24.50;;;;;;;;5014247;28;45569;-62
2022/04/23 06:00:38;;;;;;;;;29.75;28.50;;;;;;;;5017484;28;45792;-62
2022/04/23 06:03:03;;;;;;;;;26.00;24.00;;;;;;;;5021822;28;46230;-62
2022/04/23 06:05:28;;;;;;;;;28.00;28.00;;;;;;;;5019055;28;45348;-62
2022/04/23 06:07:53;;;;;;;;;31.25;28.75;;;;;;;;5030859;28;45432;-62
2022/04/23 06:10:19;;;;;;;;;29.00;26.50;;;;;;;;5033544;28;45482;-62
2022/04/23 06:12:44;;;;;;;;;31.25;26.75;;;;;;;;5024872;28;46011;-62
2022/04/23 06:15:09;;;;;;;;;31.25;29.00;;;;;;;;5020607;28;45464;-63
2022/04/23 06:17:35;;;;;;;;;30.25;27.75;;;;;;;;5017086;28;45333;-64
2022/04/23 06:20:00;;;;;;;;;21.25;21.00;;;;;;;;5017431;28;45337;-63
2022/04/23 06:22:25;;;;;;;;;28.75;27.50;;;;;;;;5025063;28;48726;-64
2022/04/23 06:24:51;;;;;;;;;26.00;25.25;;;;;;;;5032056;28;46164;-62
2022/04/23 06:27:16;;;;;;;;;23.50;21.00;;;;;;;;5019656;28;45641;-62
2022/04/23 06:29:41;;;;;;;;;25.00;25.00;;;;;;;;5016400;28;45505;-63
2022/04/23 06:32:07;;;;;;;;;26.75;26.00;;;;;;;;5017076;28;46551;-62
2022/04/23 06:34:34;;;;;;;;;24.25;24.25;;;;;;;;5021498;28;45697;-63
2022/04/23 06:36:59;;;;;;;;;30.00;24.25;;;;;;;;5016621;28;45400;-64
2022/04/23 06:39:24;;;;;;;;;30.00;27.75;;;;;;;;5018702;28;45524;-63
2022/04/23 06:41:49;;;;;;;;;28.00;26.50;;;;;;;;5037256;28;47283;-62
2022/04/23 06:44:15;;;;;;;;;27.75;26.75;;;;;;;;5027567;28;45603;-63
2022/04/23 06:46:40;;;;;;;;;33.25;31.25;;;;;;;;5016081;28;45397;-62
2022/04/23 06:49:05;;;;;;;;;28.25;27.50;;;;;;;;5020046;28;45357;-62
2022/04/23 06:51:31;;;;;;;;;31.50;28.75;;;;;;;;5021562;28;47513;-64
2022/04/23 06:53:56;;;;;;;;;28.75;27.50;;;;;;;;5023691;28;45522;-63
2022/04/23 06:56:22;;;;;;;;;36.00;30.25;;;;;;;;5027726;28;45372;-62
2022/04/23 06:58:48;;;;;;;;;35.00;31.00;;;;;;;;5031584;28;45376;-63
2022/04/23 07:01:13;;;;;;;;;28.50;28.00;;;;;;;;5017906;28;47825;-61
2022/04/23 07:03:38;;;;;;;;;28.00;28.00;;;;;;;;5029575;28;45682;-61
2022/04/23 07:06:04;;;;;;;;;24.75;23.25;;;;;;;;5024175;28;45353;-61
2022/04/23 07:08:29;;;;;;;;;23.75;23.75;;;;;;;;5019835;28;45465;-61
2022/04/23 07:10:55;;;;;;;;;24.00;21.50;;;;;;;;5031140;28;46577;-61
2022/04/23 07:13:20;;;;;;;;;38.00;30.00;;;;;;;;5017709;28;45633;-61
2022/04/23 07:15:46;;;;;;;;;25.00;24.00;;;;;;;;5032699;28;45378;-62
2022/04/23 07:18:11;;;;;;;;;28.25;28.25;;;;;;;;5028343;28;45452;-62
2022/04/23 07:20:39;;;;;;;;;33.25;30.75;;;;;;;;5023482;28;47914;-61
2022/04/23 07:25:48;;;;;;;;;29.25;29.25;;;;;;;;5018478;28;45449;-61
2022/04/23 07:28:13;;;;;;;;;29.25;28.00;;;;;;;;5034348;28;45442;-61
2022/04/23 07:30:39;;;;;;;;;31.50;30.75;;;;;;;;5031786;28;45559;-62
2022/04/23 07:33:04;;;;;;;;;29.25;26.75;;;;;;;;5032692;28;45493;-61
2022/04/23 07:38:18;;;;;;;;;32.00;29.25;;;;;;;;5032770;28;45810;-62
2022/04/23 07:40:44;;;;;;;;;29.25;28.25;;;;;;;;5031032;28;47334;-61
2022/04/23 07:43:11;;;;;;;;;27.25;26.50;;;;;;;;5034341;28;45393;-61
2022/04/23 07:45:39;;;;;;;;;35.50;30.25;;;;;;;;5032024;28;45483;-61
2022/04/23 07:48:05;;;;;;;;;25.00;23.75;;;;;;;;5032130;28;45357;-62
2022/04/23 07:50:31;;;;;;;;;30.00;28.75;;;;;;;;5032246;28;46519;-62
2022/04/23 07:52:57;;;;;;;;;32.50;31.50;;;;;;;;5030864;28;45607;-61
2022/04/23 07:55:22;;;;;;;;;38.75;30.00;;;;;;;;5032860;28;45420;-61
2022/04/23 07:57:48;;;;;;;;;32.50;30.50;;;;;;;;5033723;28;45331;-61
2022/04/23 08:00:13;;;;;;;;;30.75;29.25;;;;;;;;5027219;28;46882;-61
2022/04/23 08:02:38;;;;;;;;;33.00;31.25;;;;;;;;5024266;28;45448;-61
2022/04/23 08:05:04;;;;;;;;;32.00;29.75;;;;;;;;5030895;28;45691;-61
2022/04/23 08:07:29;;;;;;;;;29.75;29.00;;;;;;;;5032259;28;45386;-61
2022/04/23 08:09:54;;;;;;;;;29.25;25.00;;;;;;;;5032563;28;45598;-62
2022/04/23 08:12:19;;;;;;;;;28.00;28.00;;;;;;;;5031917;28;45891;-61
2022/04/23 08:14:45;;;;;;;;;31.00;30.00;;;;;;;;5031774;28;45432;-62
2022/04/23 08:17:10;;;;;;;;;36.00;33.00;;;;;;;;5032275;28;45406;-61
2022/04/23 08:19:35;;;;;;;;;29.00;26.25;;;;;;;;5032148;28;46411;-61
2022/04/23 08:22:00;;;;;;;;;30.00;29.75;;;;;;;;5034045;28;45682;-61
2022/04/23 08:24:26;;;;;;;;;38.50;35.00;;;;;;;;5027384;28;45609;-61
2022/04/23 08:26:51;;;;;;;;;36.25;28.75;;;;;;;;5014328;28;45693;-62
2022/04/23 08:32:00;;;;;;;;;30.00;27.75;;;;;;;;5033085;28;45859;-62
2022/04/23 08:34:25;;;;;;;;;32.75;31.75;;;;;;;;5028913;28;45687;-63
2022/04/23 08:36:50;;;;;;;;;29.25;29.25;;;;;;;;5028734;28;45590;-62
2022/04/23 08:39:16;;;;;;;;;34.50;32.00;;;;;;;;5028081;28;47694;-62
2022/04/23 08:41:44;;;;;;;;;30.50;29.50;;;;;;;;5021420;28;46431;-63
2022/04/23 08:44:09;;;;;;;;;35.50;30.50;;;;;;;;5013947;28;45600;-63
2022/04/23 08:46:35;;;;;;;;;33.75;31.75;;;;;;;;5030319;28;45509;-61
2022/04/23 08:49:08;;;;;;;;;36.00;32.00;;;;;;;;5028920;28;46536;-61
2022/04/23 08:51:34;;;;;;;;;27.75;26.25;;;;;;;;5017953;28;45530;-62
2022/04/23 08:54:03;;;;;;;;;30.50;28.75;;;;;;;;5021329;28;45429;-61
2022/04/23 08:56:28;;;;;;;;;36.75;32.00;;;;;;;;5027376;28;45504;-61
2022/04/23 08:58:56;;;;;;;;;36.25;31.25;;;;;;;;5014729;28;46187;-62
2022/04/23 09:01:22;;;;;;;;;31.50;30.00;;;;;;;;5021710;28;46501;-63
2022/04/23 09:03:47;;;;;;;;;29.25;27.75;;;;;;;;5028713;28;46531;-62
2022/04/23 09:06:12;;;;;;;;;32.25;31.00;;;;;;;;5029228;28;47308;-63
2022/04/23 09:08:57;;;;;;;;;33.50;31.50;;;;;;;;5029149;28;45644;-63
2022/04/23 09:11:33;;;;;;;;;32.00;28.50;;;;;;;;5026493;28;45978;-63
2022/04/23 09:13:58;;;;;;;;;36.00;32.50;;;;;;;;5028944;28;45423;-63
2022/04/23 09:24:42;;;;;;;;;33.75;31.75;;;;;;;;5018634;28;45831;-61
2022/04/23 09:27:07;;;;;;;;;31.75;29.00;;;;;;;;5016433;28;45390;-62
2022/04/23 09:29:32;;;;;;;;;31.00;30.00;;;;;;;;5014812;28;45554;-61
2022/04/23 09:32:08;;;;;;;;;36.25;30.50;;;;;;;;5026508;28;45508;-62
2022/04/23 09:34:33;;;;;;;;;33.25;31.25;;;;;;;;5026885;28;45454;-63
2022/04/23 09:37:00;;;;;;;;;32.75;32.50;;;;;;;;5017243;28;45377;-61
2022/04/23 09:39:34;;;;;;;;;33.50;31.25;;;;;;;;5016555;28;46613;-62
2022/04/23 09:42:17;;;;;;;;;34.00;31.25;;;;;;;;5020523;28;45680;-62
2022/04/23 09:44:43;;;;;;;;;32.25;32.00;;;;;;;;5028533;28;45408;-62
2022/04/23 09:47:08;;;;;;;;;32.00;31.25;;;;;;;;5018824;28;45555;-62
2022/04/23 09:49:34;;;;;;;;;36.75;34.00;;;;;;;;5033086;28;45680;-61
2022/04/23 09:52:02;;;;;;;;;37.75;33.50;;;;;;;;5033986;28;45794;-61
2022/04/23 09:54:29;;;;;;;;;34.00;32.50;;;;;;;;5021960;28;45400;-62
2022/04/23 09:56:55;;;;;;;;;38.50;34.75;;;;;;;;5023476;28;45602;-64
2022/04/23 09:59:20;;;;;;;;;38.50;32.00;;;;;;;;5030906;28;46383;-61
2022/04/23 10:01:47;;;;;;;;;31.00;30.75;;;;;;;;5017721;28;45963;-61
2022/04/23 10:04:13;;;;;;;;;38.75;32.75;;;;;;;;5032231;28;45499;-62
2022/04/23 10:06:41;;;;;;;;;35.75;33.25;;;;;;;;5029671;28;45372;-62
2022/04/23 10:09:08;;;;;;;;;38.00;33.00;;;;;;;;5027491;28;46784;-62
2022/04/23 10:11:37;;;;;;;;;32.75;30.50;;;;;;;;5018661;28;46566;-65
2022/04/23 10:14:02;;;;;;;;;31.75;29.00;;;;;;;;5028393;28;45651;-62
2022/04/23 10:16:28;;;;;;;;;30.75;30.75;;;;;;;;5031318;28;45548;-64
2022/04/23 10:18:55;;;;;;;;;32.00;28.25;;;;;;;;5032242;28;46139;-62
2022/04/23 10:21:53;;;;;;;;;28.50;28.00;;;;;;;;5029860;28;45645;-62
2022/04/23 10:24:28;;;;;;;;;29.75;28.50;;;;;;;;4972270;28;45545;-62
2022/04/23 10:27:06;;;;;;;;;26.75;25.50;;;;;;;;4971345;28;45709;-62
2022/04/23 10:29:32;;;;;;;;;28.75;27.25;;;;;;;;4965340;28;47705;-61
2022/04/23 10:32:10;;;;;;;;;27.75;26.50;;;;;;;;4967558;28;45438;-61
2022/04/23 10:34:35;;;;;;;;;25.75;24.50;;;;;;;;4970426;28;45423;-61
2022/04/23 10:37:19;;;;;;;;;29.00;28.00;;;;;;;;4972890;28;45365;-62
2022/04/23 10:39:45;;;;;;;;;26.50;25.25;;;;;;;;4973117;28;47909;-62
2022/04/23 10:42:13;;;;;;;;;26.50;25.50;;;;;;;;4965181;28;45476;-62
2022/04/23 10:44:40;;;;;;;;;30.75;28.50;;;;;;;;4965454;28;45598;-63
2022/04/23 10:47:32;;;;;;;;;27.00;24.75;;;;;;;;4971532;28;45636;-62
2022/04/23 10:50:13;;;;;;;;;26.00;26.00;;;;;;;;4952324;28;46062;-62
2022/04/23 10:52:39;;;;;;;;;26.50;25.25;;;;;;;;4954327;28;45491;-62
2022/04/23 10:55:04;;;;;;;;;26.00;26.00;;;;;;;;4964627;28;46018;-62
2022/04/23 10:57:29;;;;;;;;;26.50;25.25;;;;;;;;4972243;28;45822;-64
2022/04/23 10:59:55;;;;;;;;;25.75;25.75;;;;;;;;5005376;28;45637;-63
2022/04/23 11:02:20;;;;;;;;;24.75;23.25;;;;;;;;5030161;28;45362;-62
2022/04/23 11:13:37;;;;;;;;;25.50;25.50;;;;;;;;5032461;28;45445;-62
2022/04/23 11:16:09;;;;;;;;;29.75;28.75;;;;;;;;5036019;28;45367;-62
2022/04/23 11:18:35;;;;;;;;;28.75;28.75;;;;;;;;5031136;28;45421;-61
2022/04/23 11:21:09;;;;;;;;;28.50;26.00;;;;;;;;5025190;28;45941;-61
2022/04/23 11:23:37;;;;;;;;;27.75;27.25;;;;;;;;5023681;28;45583;-62
2022/04/23 11:26:02;;;;;;;;;28.00;28.00;;;;;;;;5031651;28;45443;-62
2022/04/23 11:28:29;;;;;;;;;20.75;20.75;;;;;;;;5034208;28;45468;-63
2022/04/23 11:30:54;;;;;;;;;23.25;23.25;;;;;;;;5030353;28;45512;-62
2022/04/23 11:33:19;;;;;;;;;26.00;25.75;;;;;;;;5027554;28;45578;-62
2022/04/23 11:35:44;;;;;;;;;26.00;26.00;;;;;;;;5039181;28;45718;-62
2022/04/23 11:38:20;;;;;;;;;25.75;25.50;;;;;;;;5033014;28;45507;-61
2022/04/23 11:40:45;;;;;;;;;22.25;20.75;;;;;;;;5035322;28;45756;-62
2022/04/23 11:43:12;;;;;;;;;26.75;23.75;;;;;;;;5037051;28;45426;-64
2022/04/23 11:45:44;;;;;;;;;18.50;15.75;;;;;;;;5033323;28;45552;-61
2022/04/23 11:48:10;;;;;;;;;18.25;15.75;;;;;;;;5035564;28;45708;-60
2022/04/23 11:50:36;;;;;;;;;20.75;20.75;;;;;;;;5029120;28;46464;-61
2022/04/23 11:53:03;;;;;;;;;16.25;15.25;;;;;;;;5034432;28;45549;-62
2022/04/23 11:55:30;;;;;;;;;18.75;18.75;;;;;;;;5034424;28;48713;-61
2022/04/23 11:58:05;;;;;;;;;20.75;19.00;;;;;;;;5037314;28;45582;-62
2022/04/23 12:00:34;;;;;;;;;18.00;17.00;;;;;;;;5031735;28;46472;-61
2022/04/23 12:03:00;;;;;;;;;13.25;12.00;;;;;;;;5028505;28;45445;-61
2022/04/23 12:05:28;;;;;;;;;13.25;13.25;;;;;;;;5041318;28;45607;-61
2022/04/23 12:07:53;;;;;;;;;13.00;13.00;;;;;;;;5030021;28;45643;-61
2022/04/23 12:10:25;;;;;;;;;9.75;9.75;;;;;;;;5035134;28;46732;-61
2022/04/23 12:12:51;;;;;;;;;13.50;11.75;;;;;;;;5033493;28;45525;-62
2022/04/23 12:15:16;;;;;;;;;12.00;12.00;;;;;;;;5029764;28;45613;-62
2022/04/23 12:17:43;;;;;;;;;15.25;15.25;;;;;;;;5030813;28;45680;-62
2022/04/23 12:20:09;;;;;;;;;10.75;10.75;;;;;;;;5030909;28;45447;-62
2022/04/23 12:22:34;;;;;;;;;12.50;11.00;;;;;;;;5034019;28;45501;-62
2022/04/23 12:25:18;;;;;;;;;13.00;13.00;;;;;;;;5034417;28;45365;-62
2022/04/23 12:27:52;;;;;;;;;12.25;11.00;;;;;;;;5033913;28;45535;-61
2022/04/23 12:41:21;;;;;;;;;13.25;13.25;;;;;;;;5038501;28;45783;-61
2022/04/23 12:43:46;;;;;;;;;12.50;12.50;;;;;;;;5030689;28;45551;-61
2022/04/23 12:46:12;;;;;;;;;11.50;11.25;;;;;;;;5051465;28;45420;-62
2022/04/23 12:48:56;;;;;;;;;13.25;11.75;;;;;;;;5031368;28;45436;-62
2022/04/23 12:51:21;;;;;;;;;11.25;11.25;;;;;;;;5028052;28;48422;-61
2022/04/23 12:53:46;;;;;;;;;10.00;10.00;;;;;;;;5037604;28;45713;-61
2022/04/23 12:56:12;;;;;;;;;11.00;9.50;;;;;;;;5029275;28;45526;-62
2022/04/23 12:58:37;;;;;;;;;12.00;12.00;;;;;;;;5027864;28;45935;-63
2022/04/23 13:01:02;;;;;;;;;12.25;12.25;;;;;;;;5028167;28;45501;-61
2022/04/23 13:03:42;;;;;;;;;13.00;12.25;;;;;;;;5026013;28;45508;-62
2022/04/23 13:08:56;;;;;;;;;11.00;10.25;;;;;;;;5020009;28;45803;-61
2022/04/23 13:11:30;;;;;;;;;9.75;9.75;;;;;;;;5036651;28;47132;-62
2022/04/23 13:13:57;;;;;;;;;9.50;9.50;;;;;;;;5027784;28;45443;-63
2022/04/23 13:16:24;;;;;;;;;9.25;9.25;;;;;;;;5035839;28;45844;-62
2022/04/23 13:18:50;;;;;;;;;10.25;10.00;;;;;;;;5030717;28;45682;-62
2022/04/23 13:21:15;;;;;;;;;13.50;13.25;;;;;;;;5025486;28;46927;-62
2022/04/23 13:23:41;;;;;;;;;8.75;8.00;;;;;;;;5036553;28;46498;-62
2022/04/23 13:26:06;;;;;;;;;12.25;11.25;;;;;;;;5021100;28;45503;-62
2022/04/23 13:28:31;;;;;;;;;11.75;11.50;;;;;;;;5033538;28;45762;-62
2022/04/23 13:30:57;;;;;;;;;12.00;10.75;;;;;;;;5032489;28;46486;-61
2022/04/23 13:33:22;;;;;;;;;12.75;11.50;;;;;;;;5013357;28;45624;-62
2022/04/23 13:35:47;;;;;;;;;10.50;10.50;;;;;;;;5037153;28;45936;-61
2022/04/23 13:38:16;;;;;;;;;10.75;10.75;;;;;;;;5029510;28;45728;-62
2022/04/23 13:40:42;;;;;;;;;10.00;10.00;;;;;;;;5032528;28;46364;-61
2022/04/23 13:43:07;;;;;;;;;7.00;7.00;;;;;;;;5031829;28;45477;-62
2022/04/23 13:45:34;;;;;;;;;9.50;9.50;;;;;;;;5027538;28;45425;-61
2022/04/23 13:48:01;;;;;;;;;6.50;6.00;;;;;;;;5025740;28;45730;-63
2022/04/23 13:50:26;;;;;;;;;10.25;9.25;;;;;;;;5026135;28;49526;-63
2022/04/23 13:52:51;;;;;;;;;7.75;7.75;;;;;;;;5032256;28;46519;-64
2022/04/23 13:55:17;;;;;;;;;7.50;7.50;;;;;;;;5027143;28;45590;-62
2022/04/23 13:57:42;;;;;;;;;7.50;6.25;;;;;;;;5009190;28;45971;-63
2022/04/23 14:00:07;;;;;;;;;8.00;5.50;;;;;;;;5024715;28;47146;-63
2022/04/23 14:10:45;;;;;;;;;6.25;6.25;;;;;;;;5013836;28;45944;-61
2022/04/23 14:13:10;;;;;;;;;4.75;4.75;;;;;;;;5032601;28;45485;-61
2022/04/23 14:15:35;;;;;;;;;6.00;6.00;;;;;;;;5026356;28;45373;-61
2022/04/23 14:18:02;;;;;;;;;10.25;9.00;;;;;;;;5024478;28;45523;-63
2022/04/23 14:20:27;;;;;;;;;8.50;7.25;;;;;;;;5028986;28;45723;-61
2022/04/23 14:22:52;;;;;;;;;7.50;7.50;;;;;;;;5028997;28;46324;-61
2022/04/23 14:25:18;;;;;;;;;8.25;8.25;;;;;;;;5031817;28;45783;-61
2022/04/23 14:27:45;;;;;;;;;5.50;5.50;;;;;;;;5032445;28;45496;-62
2022/04/23 14:30:10;;;;;;;;;4.25;4.25;;;;;;;;5026588;28;46714;-62
2022/04/23 14:32:35;;;;;;;;;4.00;3.00;;;;;;;;5023873;28;45577;-63
2022/04/23 14:35:01;;;;;;;;;2.50;2.50;;;;;;;;5033945;28;45389;-63
2022/04/23 14:37:26;;;;;;;;;1.00;1.00;;;;;;;;5034785;28;45412;-63
2022/04/23 14:39:51;;;;;;;;;1.00;1.00;;;;;;;;5031035;28;47469;-62
2022/04/23 14:42:16;;;;;;;;;1.50;1.50;;;;;;;;5028104;28;45558;-63
2022/04/23 14:44:42;;;;;;;;;2.75;2.75;;;;;;;;5033974;28;45709;-64
2022/04/23 14:47:07;;;;;;;;;3.00;2.75;;;;;;;;5034674;28;45519;-64
2022/04/23 14:49:33;;;;;;;;;2.50;2.50;;;;;;;;5033651;28;46033;-65
2022/04/23 14:54:42;;;;;;;;;0.50;0.50;;;;;;;;5032934;28;45523;-66
2022/04/23 14:57:07;;;;;;;;;1.00;1.00;;;;;;;;5033426;28;45746;-63
2022/04/23 14:59:33;;;;;;;;;1.00;1.00;;;;;;;;5031702;28;45740;-64
2022/04/23 15:01:58;;;;;;;;;1.50;0.25;;;;;;;;5033371;28;45607;-63
2022/04/23 15:04:23;;;;;;;;;1.00;0.50;;;;;;;;5031327;28;45537;-64
2022/04/23 15:06:50;;;;;;;;;2.00;2.00;;;;;;;;5032988;28;45429;-64